Time;durP1;ratioP1;P1;durP2;ratioP2;P2;SDS_P1;SDS_P2;PMS_P1;PMS_P2;Temp;Humidity;BMP_temperature;BMP_pressure;BME280_temperature;BME280_humidity;BME280_pressure;Samples;Min_cycle;Max_cycle;Signal;HPM_P1;HPM_P2
2021/07/10 00:01:51;;;;;;;12.15;6.70;;;14.80;99.90;;;;;;5052987;28;20045;-86
2021/07/10 00:04:39;;;;;;;8.85;6.72;;;14.80;99.90;;;;;;5038075;28;20529;-86
2021/07/10 00:07:26;;;;;;;12.18;7.35;;;14.80;99.90;;;;;;5038139;28;20433;-87
2021/07/10 00:10:17;;;;;;;10.55;7.38;;;14.80;99.90;;;;;;5038696;28;20045;-86
2021/07/10 00:13:04;;;;;;;9.90;6.53;;;14.80;99.90;;;;;;5037612;28;20047;-87
2021/07/10 00:15:51;;;;;;;10.70;6.75;;;14.70;99.90;;;;;;5039077;28;20160;-86
2021/07/10 00:18:38;;;;;;;9.73;6.00;;;14.60;99.90;;;;;;5037541;28;20041;-87
2021/07/10 00:21:25;;;;;;;11.38;7.07;;;14.60;99.90;;;;;;5038469;28;20049;-85
2021/07/10 00:24:12;;;;;;;13.32;6.70;;;14.60;99.90;;;;;;5038586;28;20048;-87
2021/07/10 00:27:02;;;;;;;10.07;7.40;;;14.60;99.90;;;;;;5053387;28;20045;-86
2021/07/10 00:29:49;;;;;;;11.82;7.18;;;14.50;99.90;;;;;;5038237;28;20041;-86
2021/07/10 00:32:36;;;;;;;11.35;7.78;;;14.60;99.90;;;;;;5038892;28;20053;-86
2021/07/10 00:35:23;;;;;;;11.68;7.63;;;14.60;99.90;;;;;;5053618;28;20044;-86
2021/07/10 00:38:10;;;;;;;15.52;8.05;;;14.60;99.90;;;;;;5038700;28;20460;-85
2021/07/10 00:40:57;;;;;;;9.45;6.93;;;14.70;99.90;;;;;;5038981;28;20520;-87
2021/07/10 00:43:48;;;;;;;11.23;7.57;;;14.60;99.90;;;;;;5038691;28;20053;-86
2021/07/10 00:46:35;;;;;;;11.63;7.60;;;14.60;99.90;;;;;;5038802;28;20041;-85
2021/07/10 00:49:22;;;;;;;10.88;6.65;;;14.60;99.90;;;;;;5051469;28;20045;-86
2021/07/10 00:52:10;;;;;;;10.77;6.50;;;14.60;99.90;;;;;;5037007;28;20052;-85
2021/07/10 00:54:57;;;;;;;9.45;7.20;;;14.60;99.90;;;;;;5037389;28;20046;-86
2021/07/10 00:57:45;;;;;;;11.32;7.35;;;14.50;99.90;;;;;;5051169;28;20123;-85
2021/07/10 01:00:33;;;;;;;12.80;7.25;;;14.60;99.90;;;;;;5037511;28;20045;-86
2021/07/10 01:03:21;;;;;;;11.57;7.32;;;14.60;99.90;;;;;;5050153;28;20080;-86
2021/07/10 01:06:08;;;;;;;12.43;6.60;;;14.50;99.90;;;;;;5029732;28;20049;-84
2021/07/10 01:08:56;;;;;;;11.20;6.75;;;14.60;99.90;;;;;;5037406;28;20087;-86
2021/07/10 01:11:43;;;;;;;11.73;7.63;;;14.70;99.90;;;;;;5038676;28;20067;-86
2021/07/10 01:14:31;;;;;;;12.73;7.22;;;14.70;99.90;;;;;;5037827;28;20061;-86
2021/07/10 01:17:19;;;;;;;9.95;7.22;;;14.70;99.90;;;;;;5036948;28;20055;-86
2021/07/10 01:20:09;;;;;;;11.68;7.70;;;14.70;99.90;;;;;;5036969;28;20045;-86
2021/07/10 01:22:58;;;;;;;13.98;7.63;;;14.70;99.90;;;;;;5037029;28;20052;-85
2021/07/10 01:25:46;;;;;;;14.18;6.75;;;14.80;99.90;;;;;;5037402;28;20517;-86
2021/07/10 01:28:33;;;;;;;11.73;7.35;;;14.70;99.90;;;;;;5037482;28;20041;-83
2021/07/10 01:31:23;;;;;;;12.25;7.20;;;14.70;99.90;;;;;;5037329;28;20127;-85
2021/07/10 01:34:11;;;;;;;10.77;7.40;;;14.70;99.90;;;;;;5017945;28;20045;-87
2021/07/10 01:36:58;;;;;;;12.73;7.50;;;14.70;99.90;;;;;;5018247;28;20049;-86
2021/07/10 01:39:47;;;;;;;14.27;8.02;;;14.60;99.90;;;;;;5016700;28;20469;-86
2021/07/10 01:42:34;;;;;;;15.13;9.40;;;14.70;99.90;;;;;;5017782;28;20135;-86
2021/07/10 01:45:22;;;;;;;14.30;9.73;;;14.60;99.90;;;;;;5018196;28;20083;-86
2021/07/10 01:48:12;;;;;;;13.98;9.32;;;14.70;99.90;;;;;;5016479;28;20069;-87
2021/07/10 01:50:59;;;;;;;14.88;9.23;;;14.70;99.90;;;;;;5017689;28;20568;-87
2021/07/10 01:53:46;;;;;;;13.73;8.70;;;14.70;99.90;;;;;;5018079;28;20329;-87
2021/07/10 01:56:35;;;;;;;12.45;8.82;;;14.70;99.90;;;;;;5031977;28;20399;-86
2021/07/10 01:59:22;;;;;;;12.80;8.20;;;14.70;99.90;;;;;;5017569;28;20045;-85
2021/07/10 02:02:09;;;;;;;16.40;9.20;;;14.70;99.90;;;;;;5031276;28;20033;-86
2021/07/10 02:04:56;;;;;;;15.77;9.88;;;14.70;99.90;;;;;;5017603;28;20540;-86
2021/07/10 02:07:45;;;;;;;12.43;8.43;;;14.80;99.90;;;;;;5017297;28;20055;-86
2021/07/10 02:10:33;;;;;;;13.48;7.50;;;14.80;99.90;;;;;;5016972;28;20041;-84
2021/07/10 02:13:21;;;;;;;15.00;7.55;;;14.70;99.90;;;;;;5049211;28;20048;-85
2021/07/10 02:16:09;;;;;;;13.32;7.68;;;14.80;99.90;;;;;;5056421;28;20051;-86
2021/07/10 02:18:57;;;;;;;13.00;8.45;;;14.70;99.90;;;;;;5056317;28;20049;-85
2021/07/10 02:21:44;;;;;;;14.52;8.13;;;14.70;99.90;;;;;;5055808;28;20040;-86
2021/07/10 02:24:31;;;;;;;14.30;7.97;;;14.80;99.90;;;;;;5070538;28;20052;-86
2021/07/10 02:27:19;;;;;;;13.65;8.05;;;14.80;99.90;;;;;;5056640;28;20052;-86
2021/07/10 02:30:10;;;;;;;15.07;8.23;;;14.90;99.90;;;;;;5056250;28;20048;-87
2021/07/10 02:32:58;;;;;;;11.02;7.72;;;14.80;99.90;;;;;;5046492;28;20505;-86
2021/07/10 02:35:47;;;;;;;11.52;8.02;;;14.90;99.90;;;;;;5040340;28;20060;-86
2021/07/10 02:38:34;;;;;;;13.07;8.18;;;14.90;99.90;;;;;;5040247;28;20132;-86
2021/07/10 02:41:21;;;;;;;13.02;8.32;;;14.90;99.90;;;;;;5039676;28;20160;-86
2021/07/10 02:44:09;;;;;;;13.35;7.20;;;14.80;99.90;;;;;;5040015;28;20131;-86
2021/07/10 02:46:58;;;;;;;13.23;8.23;;;14.80;99.90;;;;;;5041158;28;20041;-86
2021/07/10 02:49:45;;;;;;;13.88;8.40;;;14.70;99.90;;;;;;5054315;28;20041;-86
2021/07/10 02:52:32;;;;;;;13.10;8.85;;;14.80;99.90;;;;;;5040573;28;20054;-87
2021/07/10 02:55:20;;;;;;;15.88;10.18;;;14.90;99.90;;;;;;5040197;28;20056;-86
2021/07/10 02:58:07;;;;;;;15.32;8.93;;;15.00;99.90;;;;;;5053684;28;20049;-86
2021/07/10 03:00:54;;;;;;;14.35;9.45;;;15.00;99.90;;;;;;5053909;28;20041;-86
2021/07/10 03:03:43;;;;;;;15.15;8.52;;;15.00;99.90;;;;;;5054097;28;20052;-85
2021/07/10 03:06:30;;;;;;;16.50;8.88;;;15.10;99.90;;;;;;5053918;28;20049;-87
2021/07/10 03:09:17;;;;;;;15.75;8.90;;;15.10;99.90;;;;;;5053324;28;20416;-86
2021/07/10 03:12:05;;;;;;;13.45;8.45;;;15.00;99.90;;;;;;5053640;28;20045;-86
2021/07/10 03:14:52;;;;;;;12.23;7.82;;;14.90;99.90;;;;;;5039687;28;20442;-85
2021/07/10 03:17:39;;;;;;;12.95;7.90;;;14.80;99.90;;;;;;5039560;28;20045;-86
2021/07/10 03:20:30;;;;;;;12.00;7.95;;;14.80;99.90;;;;;;5038663;28;20053;-86
2021/07/10 03:23:17;;;;;;;15.43;8.23;;;14.80;99.90;;;;;;5039251;28;20119;-86
2021/07/10 03:26:04;;;;;;;10.82;7.18;;;14.70;99.90;;;;;;5040615;28;20136;-87
2021/07/10 03:28:51;;;;;;;14.05;8.15;;;14.70;99.90;;;;;;5038501;28;20057;-87
2021/07/10 03:31:38;;;;;;;15.73;8.38;;;14.60;99.90;;;;;;5038458;28;20408;-86
2021/07/10 03:34:25;;;;;;;15.00;9.13;;;14.60;99.90;;;;;;5033644;28;20633;-86
2021/07/10 03:37:14;;;;;;;17.33;10.15;;;14.40;99.90;;;;;;5047248;28;20049;-86
2021/07/10 03:40:02;;;;;;;15.82;10.43;;;14.20;99.90;;;;;;5046177;28;20041;-85
2021/07/10 03:42:49;;;;;;;15.48;9.48;;;14.20;99.90;;;;;;5032500;28;20532;-86
2021/07/10 03:45:36;;;;;;;17.92;10.95;;;14.10;99.90;;;;;;5033086;28;20050;-87
2021/07/10 03:48:24;;;;;;;17.50;10.68;;;14.10;99.90;;;;;;5032701;28;20045;-86
2021/07/10 03:51:11;;;;;;;14.13;10.45;;;14.10;99.90;;;;;;5033528;28;20038;-87
2021/07/10 03:53:59;;;;;;;17.80;10.55;;;14.20;99.90;;;;;;5045469;28;20429;-85
2021/07/10 03:56:47;;;;;;;18.50;11.68;;;14.10;99.90;;;;;;5034675;28;20049;-86
2021/07/10 03:59:34;;;;;;;24.00;11.75;;;14.10;99.90;;;;;;5031939;28;20042;-86
2021/07/10 04:02:21;;;;;;;18.10;11.38;;;14.10;99.90;;;;;;5031689;28;20045;-86
2021/07/10 04:05:10;;;;;;;19.95;12.13;;;14.10;99.90;;;;;;5031882;28;20652;-86
2021/07/10 04:07:57;;;;;;;21.87;13.17;;;14.10;99.90;;;;;;5032184;28;20049;-86
2021/07/10 04:10:46;;;;;;;19.35;12.27;;;14.10;99.90;;;;;;5033191;28;20418;-86
2021/07/10 04:13:33;;;;;;;23.25;13.50;;;14.10;99.90;;;;;;5081783;28;20040;-84
2021/07/10 04:16:20;;;;;;;21.83;13.23;;;14.10;99.90;;;;;;5057629;28;20048;-86
2021/07/10 04:19:08;;;;;;;19.13;12.38;;;14.20;99.90;;;;;;5058079;28;20505;-86
2021/07/10 04:21:55;;;;;;;22.15;12.57;;;14.20;99.90;;;;;;5058654;28;20505;-86
2021/07/10 04:24:42;;;;;;;19.00;12.13;;;14.20;99.90;;;;;;5072727;28;20056;-85
2021/07/10 04:27:31;;;;;;;18.65;11.43;;;14.20;99.90;;;;;;5071506;28;20045;-87
2021/07/10 04:30:19;;;;;;;19.88;11.52;;;14.20;99.90;;;;;;5058722;28;20037;-85
2021/07/10 04:33:06;;;;;;;17.67;10.77;;;14.20;99.90;;;;;;5046429;28;20540;-86
2021/07/10 04:35:54;;;;;;;19.15;11.60;;;14.30;99.90;;;;;;5037996;28;20632;-87
2021/07/10 04:38:41;;;;;;;20.52;12.25;;;14.30;99.90;;;;;;5038101;28;20055;-86
2021/07/10 04:41:28;;;;;;;18.52;12.25;;;14.40;99.90;;;;;;5037504;28;20098;-86
2021/07/10 04:44:17;;;;;;;16.90;11.65;;;14.40;99.90;;;;;;5037926;28;20059;-85
2021/07/10 04:47:04;;;;;;;19.13;12.18;;;14.40;99.90;;;;;;5038758;28;20437;-87
2021/07/10 04:49:52;;;;;;;21.30;12.73;;;14.50;99.90;;;;;;5051093;28;20126;-86
2021/07/10 04:52:42;;;;;;;22.63;12.23;;;14.60;99.90;;;;;;5050852;28;20174;-86
2021/07/10 04:55:29;;;;;;;19.52;12.05;;;14.60;99.90;;;;;;5051001;28;20167;-86
2021/07/10 04:58:16;;;;;;;19.08;12.38;;;14.60;99.90;;;;;;5050318;28;20132;-87
2021/07/10 05:01:04;;;;;;;17.60;11.60;;;14.60;99.90;;;;;;5050929;28;20049;-88
2021/07/10 05:03:52;;;;;;;23.25;12.88;;;14.70;99.90;;;;;;5051982;28;20056;-85
2021/07/10 05:06:39;;;;;;;21.73;12.82;;;14.80;99.90;;;;;;5050318;28;20132;-86
2021/07/10 05:09:26;;;;;;;21.52;13.20;;;14.80;99.90;;;;;;5036869;28;20055;-86
2021/07/10 05:12:15;;;;;;;23.00;13.57;;;14.80;99.90;;;;;;5052589;28;20132;-86
2021/07/10 05:15:03;;;;;;;25.83;14.80;;;14.90;99.90;;;;;;5036443;28;20072;-87
2021/07/10 05:17:51;;;;;;;26.20;15.20;;;15.00;99.90;;;;;;5036300;28;20087;-88
2021/07/10 05:20:38;;;;;;;23.42;15.23;;;15.10;99.90;;;;;;5037518;28;20047;-87
2021/07/10 05:23:26;;;;;;;22.42;14.90;;;15.20;99.90;;;;;;5037415;28;20586;-86
2021/07/10 05:26:13;;;;;;;20.98;14.07;;;15.30;99.90;;;;;;5037534;28;20128;-87
2021/07/10 05:31:26;;;;;;;20.67;14.35;;;15.60;99.90;;;;;;5088887;22;20070;-85
2021/07/10 05:34:14;;;;;;;22.40;13.70;;;15.70;99.90;;;;;;5037122;28;20049;-85
2021/07/10 05:37:02;;;;;;;21.33;13.75;;;15.90;99.90;;;;;;5052607;28;20123;-85
2021/07/10 05:39:49;;;;;;;19.25;12.85;;;16.10;99.90;;;;;;5051402;28;20043;-86
2021/07/10 05:42:36;;;;;;;19.25;13.07;;;16.20;99.90;;;;;;5038642;28;20108;-85
2021/07/10 05:45:23;;;;;;;23.33;13.95;;;16.20;99.90;;;;;;5038169;28;20507;-85
2021/07/10 05:48:10;;;;;;;20.63;13.48;;;16.30;99.90;;;;;;5037884;28;20219;-86
2021/07/10 05:50:59;;;;;;;18.60;12.52;;;16.40;99.90;;;;;;5039079;28;20120;-87
2021/07/10 05:53:46;;;;;;;21.13;13.40;;;16.50;99.90;;;;;;5037682;28;20128;-87
2021/07/10 05:56:33;;;;;;;19.38;12.55;;;16.70;99.90;;;;;;5038660;28;20053;-85
2021/07/10 05:59:20;;;;;;;19.35;12.32;;;16.70;99.90;;;;;;5052755;28;20049;-86
2021/07/10 06:02:07;;;;;;;17.73;12.85;;;16.90;99.90;;;;;;5038415;28;20445;-86
2021/07/10 06:04:55;;;;;;;17.75;11.43;;;16.90;99.90;;;;;;5037871;28;20048;-86
2021/07/10 06:07:43;;;;;;;17.65;12.38;;;16.90;99.90;;;;;;5040441;28;20128;-86
2021/07/10 06:10:30;;;;;;;19.08;12.15;;;17.10;99.90;;;;;;5043845;28;20511;-86
2021/07/10 06:13:17;;;;;;;18.48;12.20;;;17.20;99.90;;;;;;5059642;28;20047;-85
2021/07/10 06:16:05;;;;;;;16.58;11.30;;;17.20;99.90;;;;;;5063235;28;20123;-87
2021/07/10 06:18:52;;;;;;;15.32;10.60;;;17.30;99.90;;;;;;5062543;28;20102;-86
2021/07/10 06:21:39;;;;;;;18.67;11.10;;;17.40;99.90;;;;;;5064468;28;20048;-85
2021/07/10 06:24:27;;;;;;;18.83;10.63;;;17.50;99.90;;;;;;5065175;28;20112;-88
2021/07/10 06:27:14;;;;;;;15.20;10.63;;;17.50;99.90;;;;;;5063502;28;20182;-85
2021/07/10 06:30:03;;;;;;;17.52;11.35;;;17.60;99.90;;;;;;5063863;28;20036;-86
2021/07/10 06:32:50;;;;;;;18.80;11.25;;;17.70;99.90;;;;;;5078475;28;20044;-86
2021/07/10 06:35:37;;;;;;;17.80;11.15;;;17.70;99.90;;;;;;5064755;28;20127;-85
2021/07/10 06:38:24;;;;;;;16.65;10.77;;;17.70;99.90;;;;;;5064852;28;20048;-85
2021/07/10 06:41:13;;;;;;;17.02;10.32;;;17.80;99.90;;;;;;5063643;28;20418;-85
2021/07/10 06:44:00;;;;;;;17.75;11.02;;;17.90;99.90;;;;;;5078333;28;20047;-85
2021/07/10 06:46:47;;;;;;;16.42;11.00;;;17.70;99.90;;;;;;5063720;28;20040;-85
2021/07/10 06:49:34;;;;;;;16.08;10.43;;;17.90;99.90;;;;;;5063936;28;20106;-86
2021/07/10 06:52:22;;;;;;;17.25;11.70;;;18.00;99.90;;;;;;5063786;28;20071;-86
2021/07/10 06:55:11;;;;;;;17.08;11.43;;;18.00;99.90;;;;;;5063312;28;20097;-86
2021/07/10 06:57:59;;;;;;;16.65;10.77;;;18.00;99.90;;;;;;5063198;28;20484;-86
2021/07/10 07:00:46;;;;;;;13.15;9.80;;;18.00;99.90;;;;;;5063408;28;20037;-86
2021/07/10 07:03:33;;;;;;;16.40;11.63;;;18.00;99.90;;;;;;5063167;28;20118;-86
2021/07/10 07:06:20;;;;;;;15.93;10.55;;;18.00;99.90;;;;;;5078107;28;20437;-85
2021/07/10 07:09:07;;;;;;;18.80;10.70;;;18.00;99.90;;;;;;5063192;28;20505;-86
2021/07/10 07:11:55;;;;;;;18.63;10.88;;;18.10;99.90;;;;;;5076706;28;20111;-85
2021/07/10 07:14:43;;;;;;;15.50;10.73;;;18.10;99.90;;;;;;5063216;28;20054;-86
2021/07/10 07:17:35;;;;;;;13.55;9.65;;;18.20;99.90;;;;;;5063804;28;20045;-86
2021/07/10 07:20:22;;;;;;;13.23;8.63;;;18.20;99.90;;;;;;5058532;28;20045;-86
2021/07/10 07:23:10;;;;;;;16.45;9.52;;;18.30;99.90;;;;;;5060482;28;20051;-85
2021/07/10 07:25:57;;;;;;;12.35;8.07;;;18.30;99.90;;;;;;5075129;28;20127;-85
2021/07/10 07:28:44;;;;;;;13.60;9.43;;;18.40;99.90;;;;;;5074351;28;20131;-85
2021/07/10 07:31:33;;;;;;;16.05;9.63;;;18.40;99.90;;;;;;5073258;28;20521;-86
2021/07/10 07:34:20;;;;;;;14.57;9.53;;;18.40;99.90;;;;;;5060812;28;20119;-86
2021/07/10 07:37:07;;;;;;;14.43;9.07;;;18.40;99.90;;;;;;5059440;28;20467;-86
2021/07/10 07:39:54;;;;;;;13.50;9.60;;;18.50;99.90;;;;;;5058198;28;20051;-86
2021/07/10 07:42:42;;;;;;;15.20;10.07;;;18.50;99.90;;;;;;5059478;28;20513;-86
2021/07/10 07:45:29;;;;;;;14.90;9.48;;;18.60;99.90;;;;;;5059460;28;20506;-86
2021/07/10 07:48:18;;;;;;;14.13;10.15;;;18.60;99.90;;;;;;5059813;28;20075;-85
2021/07/10 07:51:08;;;;;;;14.43;10.32;;;18.60;99.90;;;;;;5059700;28;20040;-85
2021/07/10 07:53:55;;;;;;;14.77;9.30;;;18.70;99.90;;;;;;5060015;28;20044;-86
2021/07/10 07:56:42;;;;;;;15.65;10.10;;;18.70;99.90;;;;;;5058808;28;20155;-85
2021/07/10 07:59:29;;;;;;;14.25;9.65;;;18.80;99.90;;;;;;5059564;28;20105;-86
2021/07/10 08:02:16;;;;;;;16.70;10.70;;;18.90;99.90;;;;;;5073850;28;20505;-85
2021/07/10 08:05:06;;;;;;;16.98;11.85;;;19.00;99.90;;;;;;5058447;28;20162;-86
2021/07/10 08:07:54;;;;;;;20.02;12.98;;;19.00;99.90;;;;;;5059574;28;20044;-85
2021/07/10 08:10:41;;;;;;;19.20;12.70;;;19.00;99.90;;;;;;5058601;28;20055;-85
2021/07/10 08:13:28;;;;;;;18.83;13.25;;;19.00;99.90;;;;;;5058358;28;20048;-85
2021/07/10 08:16:15;;;;;;;20.17;12.48;;;19.10;99.90;;;;;;5058623;28;20044;-86
2021/07/10 08:19:02;;;;;;;19.58;13.18;;;19.10;99.90;;;;;;5058896;28;20049;-85
2021/07/10 08:21:51;;;;;;;21.10;13.38;;;19.20;99.90;;;;;;5072950;28;20428;-86
2021/07/10 08:24:38;;;;;;;18.08;12.93;;;19.30;99.90;;;;;;5072661;28;20128;-85
2021/07/10 08:27:25;;;;;;;18.50;12.88;;;19.50;99.90;;;;;;5057878;28;20045;-86
2021/07/10 08:30:15;;;;;;;21.00;13.88;;;19.60;99.90;;;;;;5071907;28;20484;-85
2021/07/10 08:33:03;;;;;;;20.45;13.25;;;19.70;99.90;;;;;;5073263;28;20509;-86
2021/07/10 08:35:50;;;;;;;17.60;12.13;;;19.90;99.90;;;;;;5073321;28;20112;-86
2021/07/10 08:38:38;;;;;;;21.90;15.25;;;20.00;99.90;;;;;;5058778;28;20131;-86
2021/07/10 08:41:25;;;;;;;22.33;13.57;;;19.90;99.90;;;;;;5059923;28;20127;-85
2021/07/10 08:44:13;;;;;;;15.45;11.55;;;19.90;99.90;;;;;;5062601;28;20521;-88
2021/07/10 08:47:01;;;;;;;18.67;12.55;;;20.00;99.90;;;;;;5063458;28;20569;-88
2021/07/10 08:49:48;;;;;;;20.10;12.55;;;20.10;99.90;;;;;;5063610;28;20076;-87
2021/07/10 08:52:36;;;;;;;18.40;11.60;;;20.20;99.90;;;;;;5078180;28;20139;-86
2021/07/10 08:55:25;;;;;;;19.02;10.57;;;20.30;99.90;;;;;;5062816;28;20052;-85
2021/07/10 08:58:16;;;;;;;18.73;12.60;;;20.40;99.90;;;;;;5063620;28;20036;-86
2021/07/10 09:01:04;;;;;;;15.07;10.88;;;20.60;99.90;;;;;;5064624;28;20040;-86
2021/07/10 09:03:52;;;;;;;21.52;13.70;;;20.70;99.90;;;;;;5065110;28;20107;-88
2021/07/10 09:06:40;;;;;;;18.63;12.38;;;20.90;99.90;;;;;;5064051;28;20048;-88
2021/07/10 09:09:44;;;;;;;15.73;10.38;;;20.90;99.90;;;;;;5062735;28;20052;-87
2021/07/10 09:12:33;;;;;;;18.52;11.35;;;20.90;99.90;;;;;;5076854;28;20044;-88
2021/07/10 09:15:20;;;;;;;19.87;12.07;;;21.00;99.90;;;;;;5064576;28;20421;-87
2021/07/10 09:18:09;;;;;;;16.23;11.27;;;21.00;99.90;;;;;;5064342;28;20119;-88
2021/07/10 09:20:56;;;;;;;14.57;9.93;;;21.00;99.90;;;;;;5064260;28;20060;-87
2021/07/10 09:23:45;;;;;;;18.50;11.48;;;21.20;99.90;;;;;;5066879;28;20626;-86
2021/07/10 09:26:33;;;;;;;18.95;10.52;;;21.30;99.90;;;;;;5074011;28;20091;-86
2021/07/10 09:29:23;;;;;;;15.43;10.30;;;21.50;99.90;;;;;;5063348;28;20134;-86
2021/07/10 09:32:12;;;;;;;12.10;8.32;;;21.60;99.90;;;;;;5058251;28;20625;-86
2021/07/10 09:35:00;;;;;;;13.10;8.37;;;21.30;99.90;;;;;;5072860;28;20058;-87
2021/07/10 09:37:53;;;;;;;15.27;8.38;;;21.20;99.90;;;;;;5057146;28;20807;-88
2021/07/10 09:40:40;;;;;;;14.30;8.90;;;21.40;99.90;;;;;;5057561;28;20119;-86
2021/07/10 09:43:32;;;;;;;13.85;8.35;;;21.40;99.90;;;;;;5057575;28;20044;-86
2021/07/10 09:46:26;;;;;;;15.02;8.57;;;21.80;99.90;;;;;;5058288;28;20059;-86
2021/07/10 09:49:29;;;;;;;12.48;7.65;;;21.90;99.90;;;;;;5071512;28;20051;-86
2021/07/10 09:52:18;;;;;;;13.02;7.93;;;22.10;99.90;;;;;;5058379;28;20047;-87
2021/07/10 09:55:08;;;;;;;13.48;7.65;;;22.30;99.90;;;;;;5059052;28;20129;-86
2021/07/10 09:57:59;;;;;;;13.23;7.85;;;22.60;99.90;;;;;;5058350;28;20049;-87
2021/07/10 10:00:46;;;;;;;12.15;6.88;;;22.70;99.90;;;;;;5058072;28;20051;-87
2021/07/10 10:03:34;;;;;;;12.85;7.13;;;22.90;99.90;;;;;;5058331;28;20044;-86
2021/07/10 10:06:32;;;;;;;13.38;8.05;;;23.10;99.90;;;;;;5058495;28;20123;-86
2021/07/10 10:09:21;;;;;;;10.88;7.20;;;23.20;99.90;;;;;;5073225;28;20084;-87
2021/07/10 10:12:13;;;;;;;13.15;7.60;;;22.90;99.90;;;;;;5073528;28;20110;-84
2021/07/10 10:15:00;;;;;;;12.57;8.43;;;23.00;99.90;;;;;;5059853;28;20040;-86
2021/07/10 10:17:48;;;;;;;17.27;7.63;;;23.30;99.90;;;;;;5059037;28;20063;-87
2021/07/10 10:20:37;;;;;;;11.85;6.88;;;23.40;99.20;;;;;;5074353;28;20048;-86
2021/07/10 10:23:25;;;;;;;8.02;5.40;;;23.50;99.90;;;;;;5073812;28;20052;-87
2021/07/10 10:26:14;;;;;;;9.77;5.88;;;23.80;99.90;;;;;;5072230;28;20444;-87
2021/07/10 10:29:01;;;;;;;12.55;6.57;;;24.00;99.90;;;;;;5073329;28;20059;-85
2021/07/10 10:31:49;;;;;;;9.85;6.95;;;24.10;99.00;;;;;;5059326;28;20037;-88
2021/07/10 10:34:42;;;;;;;12.18;6.30;;;24.20;98.90;;;;;;5059860;28;20095;-85
2021/07/10 10:37:30;;;;;;;6.85;4.82;;;24.20;98.90;;;;;;5073875;28;20502;-84
2021/07/10 10:40:22;;;;;;;9.30;5.65;;;24.30;99.40;;;;;;5059475;28;20070;-86
2021/07/10 10:43:14;;;;;;;9.98;7.10;;;24.20;99.90;;;;;;5073029;28;20043;-86
2021/07/10 10:46:11;;;;;;;10.32;6.15;;;24.00;98.10;;;;;;5059395;28;20187;-85
2021/07/10 10:48:58;;;;;;;11.88;7.25;;;24.00;99.60;;;;;;5057884;28;20111;-87
2021/07/10 10:51:46;;;;;;;12.40;6.60;;;23.90;99.90;;;;;;5058457;28;20091;-85
2021/07/10 10:54:34;;;;;;;9.05;6.00;;;24.30;99.30;;;;;;5075188;28;20055;-85
2021/07/10 10:57:32;;;;;;;9.70;5.90;;;24.40;99.20;;;;;;5062696;28;20179;-85
2021/07/10 11:00:29;;;;;;;9.18;5.75;;;24.50;99.90;;;;;;5062571;28;20048;-87
2021/07/10 11:03:21;;;;;;;10.98;5.80;;;24.40;99.90;;;;;;5062416;28;20116;-87
2021/07/10 11:06:28;;;;;;;9.43;6.38;;;24.50;99.80;;;;;;5077741;28;20045;-84
2021/07/10 11:09:15;;;;;;;8.65;5.97;;;24.60;98.70;;;;;;5077932;28;20044;-85
2021/07/10 11:12:04;;;;;;;12.25;6.32;;;24.80;98.50;;;;;;5077883;28;20115;-87
2021/07/10 11:14:51;;;;;;;9.95;6.97;;;24.80;99.90;;;;;;5063631;28;20136;-88
2021/07/10 11:17:38;;;;;;;11.10;6.57;;;25.10;98.80;;;;;;5063348;28;20054;-86
2021/07/10 11:20:44;;;;;;;8.35;5.72;;;25.20;99.00;;;;;;5063455;28;20114;-86
2021/07/10 11:23:32;;;;;;;11.57;6.88;;;25.40;98.80;;;;;;5064406;28;20494;-87
2021/07/10 11:26:20;;;;;;;11.32;7.40;;;25.30;97.70;;;;;;5063600;28;20509;-86
2021/07/10 11:29:17;;;;;;;12.32;6.75;;;25.20;97.70;;;;;;5076341;28;20048;-86
2021/07/10 11:34:35;;;;;;;10.77;6.60;;;25.40;97.70;;;;;;5072860;28;20115;-87
2021/07/10 11:37:23;;;;;;;9.43;6.47;;;25.50;97.40;;;;;;5059875;28;20088;-87
2021/07/10 11:40:11;;;;;;;11.25;6.90;;;25.90;97.30;;;;;;5075264;28;20121;-87
2021/07/10 11:43:06;;;;;;;10.63;6.83;;;25.50;97.10;;;;;;5079488;28;20090;-84
2021/07/10 11:45:55;;;;;;;9.70;6.07;;;25.30;96.70;;;;;;5078658;28;20270;-84
2021/07/10 11:49:22;;;;;;;7.38;4.90;;;25.20;98.10;;;;;;5080994;28;20051;-86
2021/07/10 11:52:13;;;;;;;11.85;6.55;;;25.20;98.10;;;;;;5078033;28;20123;-86
2021/07/10 11:55:03;;;;;;;11.23;6.22;;;25.40;97.70;;;;;;5079178;28;20048;-84
2021/07/10 11:57:50;;;;;;;8.80;6.47;;;25.70;97.80;;;;;;5077191;28;20127;-86
2021/07/10 12:00:38;;;;;;;10.48;5.97;;;25.90;96.70;;;;;;5077827;28;20047;-86
2021/07/10 12:03:27;;;;;;;10.48;6.70;;;26.00;98.10;;;;;;5078502;28;20497;-87
2021/07/10 12:06:19;;;;;;;10.15;6.10;;;25.90;96.90;;;;;;5078599;28;20123;-87
2021/07/10 12:09:07;;;;;;;8.98;5.70;;;25.90;97.00;;;;;;5078921;28;20070;-83
2021/07/10 12:11:54;;;;;;;7.75;5.13;;;25.70;97.50;;;;;;5078134;28;20043;-87
2021/07/10 12:14:49;;;;;;;11.02;6.03;;;25.90;97.30;;;;;;5093692;28;20048;-83
2021/07/10 12:17:43;;;;;;;8.95;5.95;;;25.70;94.80;;;;;;5079394;28;20576;-87
2021/07/10 12:20:34;;;;;;;9.00;6.15;;;25.30;95.00;;;;;;5077064;28;20500;-87
2021/07/10 12:23:23;;;;;;;9.95;5.85;;;25.00;95.40;;;;;;5078052;28;20097;-87
2021/07/10 12:26:12;;;;;;;9.48;5.75;;;24.60;95.90;;;;;;5078134;28;20044;-88
2021/07/10 12:29:00;;;;;;;9.77;5.90;;;24.80;97.00;;;;;;5092676;28;20048;-86
2021/07/10 12:31:47;;;;;;;8.05;5.63;;;25.00;98.50;;;;;;5078781;28;20040;-87
2021/07/10 12:34:34;;;;;;;8.48;4.97;;;25.30;96.70;;;;;;5077965;28;20048;-87
2021/07/10 12:37:24;;;;;;;7.55;5.05;;;25.30;94.80;;;;;;5077632;28;20079;-86
2021/07/10 12:40:12;;;;;;;8.73;5.75;;;26.40;95.90;;;;;;5076461;28;20044;-87
2021/07/10 12:42:59;;;;;;;8.98;4.93;;;25.50;95.30;;;;;;5092570;28;20127;-86
2021/07/10 12:45:57;;;;;;;9.95;5.03;;;25.70;96.30;;;;;;5077741;28;20048;-86
2021/07/10 12:48:45;;;;;;;12.52;5.47;;;25.90;96.60;;;;;;5078191;28;20583;-87
2021/07/10 12:51:32;;;;;;;9.50;4.78;;;26.00;97.50;;;;;;5078068;28;20046;-87
2021/07/10 12:54:29;;;;;;;8.60;5.55;;;26.20;96.50;;;;;;5077604;28;20122;-84
2021/07/10 12:57:39;;;;;;;6.88;4.82;;;26.00;94.50;;;;;;5105022;28;20523;-87
2021/07/10 13:00:28;;;;;;;10.38;6.30;;;26.10;96.70;;;;;;5076904;28;20057;-87
2021/07/10 13:03:21;;;;;;;8.13;5.95;;;26.10;95.10;;;;;;5077559;28;20056;-87
2021/07/10 13:06:09;;;;;;;9.18;5.55;;;26.40;95.30;;;;;;5077925;28;20041;-87
2021/07/10 13:09:00;;;;;;;8.20;5.70;;;26.60;95.90;;;;;;5077135;28;20054;-86
2021/07/10 13:11:51;;;;;;;9.70;5.78;;;26.70;94.50;;;;;;5074013;28;20519;-87
2021/07/10 13:14:38;;;;;;;9.50;5.55;;;26.60;95.50;;;;;;5084684;28;20571;-89
2021/07/10 13:17:25;;;;;;;10.70;5.95;;;26.40;94.60;;;;;;5057059;28;20123;-87
2021/07/10 13:20:29;;;;;;;10.63;6.20;;;26.60;93.30;;;;;;5084348;28;20049;-87
2021/07/10 13:23:27;;;;;;;11.13;6.53;;;26.50;93.50;;;;;;5056952;28;20508;-88
2021/07/10 13:26:20;;;;;;;8.10;5.65;;;26.60;93.50;;;;;;5056211;28;20045;-86
2021/07/10 13:29:16;;;;;;;7.75;5.53;;;26.50;93.40;;;;;;5056746;28;20529;-87
2021/07/10 13:32:05;;;;;;;8.10;5.50;;;26.60;94.30;;;;;;5059252;28;20062;-87
2021/07/10 13:34:52;;;;;;;;;;;26.70;94.30;;;;;;5104570;28;20040;-87
2021/07/10 13:37:39;;;;;;;8.75;5.90;;;26.60;96.30;;;;;;5076702;28;20006;-88
2021/07/10 13:40:29;;;;;;;8.20;4.85;;;26.20;96.00;;;;;;5076848;28;20134;-87
2021/07/10 13:43:24;;;;;;;6.28;4.78;;;25.90;96.00;;;;;;5076233;28;20044;-87
2021/07/10 13:46:13;;;;;;;7.85;5.38;;;25.90;96.90;;;;;;5077233;28;20085;-87
2021/07/10 13:49:16;;;;;;;7.30;5.30;;;26.10;96.50;;;;;;5076687;28;20047;-87
2021/07/10 13:52:16;;;;;;;8.75;5.97;;;27.60;95.40;;;;;;5076306;28;20085;-86
2021/07/10 13:55:06;;;;;;;10.60;5.18;;;25.80;93.70;;;;;;5076149;28;20044;-88
2021/07/10 13:57:54;;;;;;;;;;;25.80;95.90;;;;;;5078187;28;20154;-86
2021/07/10 14:00:41;;;;;;;7.85;4.95;;;25.90;96.00;;;;;;5076858;28;19924;-85
2021/07/10 14:03:30;;;;;;;7.80;4.85;;;26.00;96.80;;;;;;5076158;28;20137;-87
2021/07/10 14:06:17;;;;;;;9.47;5.27;;;25.90;97.10;;;;;;5076538;28;20048;-87
2021/07/10 14:09:04;;;;;;;9.00;5.00;;;25.80;97.60;;;;;;5076970;28;20050;-87
2021/07/10 14:11:51;;;;;;;8.52;5.57;;;25.80;97.20;;;;;;5072423;28;20037;-87
2021/07/10 14:14:38;;;;;;;7.75;5.07;;;25.80;95.20;;;;;;5056842;28;20097;-87
2021/07/10 14:17:25;;;;;;;9.07;6.00;;;25.10;96.50;;;;;;5056370;28;20517;-87
2021/07/10 14:20:16;;;;;;;8.70;5.60;;;25.10;96.30;;;;;;5083077;28;20049;-87
2021/07/10 14:23:03;;;;;;;9.02;5.32;;;25.20;95.20;;;;;;5071083;28;20139;-87
2021/07/10 14:25:51;;;;;;;11.63;6.38;;;25.00;97.10;;;;;;5056775;28;20520;-87
2021/07/10 14:28:38;;;;;;;9.25;6.60;;;24.80;98.00;;;;;;5056884;28;20045;-87
2021/07/10 14:31:25;;;;;;;10.48;6.32;;;24.30;96.60;;;;;;5059142;28;20048;-85